Flight Track Log - Related Links

Times and Time Zones

All times are in EDT time to prevent confusion due to time zone crossing. See the SWA3764 flight status page for this flight to view local times or setup timezone preferences in your user account.

Time Position Orientation Groundspeed Altitude Reporting Facility
EDT Latitude Longitude Course Direction KTS MPH feet Rate Location/Type
Mon 07:22:44 AM 41.7667 -87.7667 180° South 132 152 2,400  Level Chicago TRACON
Mon 07:23:44 AM 41.7333 -87.8167 228° Southwest 185 213 3,200 1,780 Climbing Chicago TRACON
Mon 07:25:46 AM 41.5975 -87.8364 186° South 258 297 7,800 2,787 Climbing Chicago Center
Mon 07:26:47 AM 41.5219 -87.8536 190° South 272 313 11,700 3,541 Climbing Chicago Center
Mon 07:27:48 AM 41.4358 -87.8725 189° South 307 353 15,000 3,171 Climbing Chicago Center
Mon 07:28:00 AM 41.2067 -87.8833 180° South  Level FlightAware Approximate
Mon 07:28:50 AM 41.3411 -87.8819 184° South 330 380 18,200  Level Chicago Center
Mon 07:29:51 AM 41.2158 -87.8594 172° South 371 427 22,200 3,246 Climbing Chicago Center
Mon 07:30:52 AM 41.1069 -87.8406 173° South 387 445 24,800 2,656 Climbing Chicago Center
Mon 07:31:53 AM 40.9958 -87.8233 173° South 399 459 27,600 2,829 Climbing Chicago Center
Mon 07:32:55 AM 40.8839 -87.8047 173° South 406 467 30,600 2,585 Climbing Chicago Center
Mon 07:33:56 AM 40.7708 -87.7867 173° South 408 470 32,900 1,171 Climbing Chicago Center
Mon 07:34:58 AM 40.6586 -87.7675 173° South 408 470 33,000 49 Climbing Chicago Center
Mon 07:35:59 AM 40.5461 -87.7497 173° South 411 473 33,000  Level Chicago Center
Mon 07:37:01 AM 40.4314 -87.7314 173° South 417 480 33,000  Level Chicago Center
Mon 07:38:02 AM 40.2956 -87.7106 173° South 412 474 33,000  Level Chicago Center
Mon 07:39:04 AM 40.1811 -87.6908 172° South 416 479 33,000  Level Chicago Center
Mon 07:40:05 AM 40.0669 -87.6714 173° South 416 479 33,000  Level Chicago Center
Mon 07:41:13 AM 39.9308 -87.6500 173° South 421 484 33,000  Level Indianapolis Center
Mon 07:42:15 AM 39.8144 -87.6311 173° South 420 483 33,000  Level Indianapolis Center
Mon 07:43:16 AM 39.6975 -87.6133 173° South 421 484 33,000  Level Indianapolis Center
Mon 07:44:17 AM 39.5797 -87.5953 173° South 423 487 33,000  Level Indianapolis Center
Mon 07:45:19 AM 39.4633 -87.5750 172° South 420 483 33,000  Level Indianapolis Center
Mon 07:46:20 AM 39.3461 -87.5572 173° South 422 486 33,000  Level Indianapolis Center
Mon 07:47:22 AM 39.2292 -87.5389 173° South 423 487 33,000  Level Indianapolis Center
Mon 07:48:23 AM 39.1111 -87.5219 174° South 424 488 33,000  Level Indianapolis Center
Mon 07:49:25 AM 38.9931 -87.5031 173° South 426 490 33,000  Level Indianapolis Center
Mon 07:50:26 AM 38.8500 -87.4800 173° South 429 494 33,000  Level Indianapolis Center
Mon 07:51:27 AM 38.7300 -87.4617 173° South 433 498 33,000  Level Indianapolis Center
Mon 07:52:29 AM 38.6114 -87.4439 173° South 431 496 33,000  Level Indianapolis Center
Mon 07:53:31 AM 38.4928 -87.4258 173° South 429 494 33,000  Level Indianapolis Center
Mon 07:54:32 AM 38.3750 -87.4083 173° South 429 494 33,000  Level Indianapolis Center
Mon 07:55:34 AM 38.2581 -87.3906 173° South 429 494 33,000  Level Indianapolis Center
Mon 07:56:35 AM 38.1403 -87.3733 173° South 428 493 33,000  Level Indianapolis Center
Mon 07:57:37 AM 37.9986 -87.3522 173° South 428 493 33,000  Level Indianapolis Center
Mon 07:58:38 AM 37.8803 -87.3339 173° South 429 494 33,000 -732 Level Indianapolis Center
Mon 07:59:40 AM 37.7678 -87.3169 173° South 429 494 31,500 -1,984 Descending Indianapolis Center
Mon 08:00:42 AM 37.6494 -87.3017 174° South 426 490 28,900 -2,562 Descending Indianapolis Center
Mon 08:01:09 AM 37.5939 -87.2950 175° South 435 501 27,700 -2,483 Descending Memphis Center
Mon 08:02:09 AM 37.4728 -87.2761 173° South 419 482 25,300 -2,300 Descending Memphis Center
Mon 08:03:09 AM 37.3639 -87.2569 172° South 404 465 23,100 -1,045 Descending Memphis Center
Mon 08:04:21 AM 37.2444 -87.2250 168° South 380 437 23,000 -50 Descending Memphis Center
Mon 08:05:09 AM 37.1606 -87.1997 166° South 385 443 23,000  Level Memphis Center
Mon 08:06:22 AM 37.0344 -87.1658 168° South 386 444 23,000 -650 Level Memphis Center
Mon 08:07:09 AM 36.9506 -87.1381 165° South 385 443 21,700 -1,963 Descending Memphis Center
Mon 08:08:09 AM 36.8539 -87.1108 167° South 377 434 19,500 -2,050 Descending Memphis Center
Mon 08:09:09 AM 36.7589 -87.0653 159° South 364 419 17,600 -2,100 Descending Memphis Center
Mon 08:10:09 AM 36.6742 -87.0119 153° Southeast 352 405 15,300 -2,000 Descending Memphis Center
Mon 08:11:09 AM 36.5978 -86.9658 154° Southeast 346 398 13,600 -1,900 Descending Memphis Center
Mon 08:12:09 AM 36.5153 -86.9153 154° Southeast 335 386 11,500 -1,750 Descending Memphis Center
Mon 08:13:09 AM 36.4408 -86.8667 152° Southeast 318 366 10,100 -1,200 Descending Memphis Center
Mon 08:14:09 AM 36.3708 -86.8258 155° Southeast 287 330 9,100 -1,250 Descending Memphis Center
Mon 08:15:09 AM 36.2967 -86.7803 154° Southeast 281 323 7,600 -1,450 Descending Memphis Center
Mon 08:16:09 AM 36.2292 -86.7525 162° South 270 311 6,200 -1,200 Descending Memphis Center
Mon 08:17:09 AM 36.1631 -86.7783 198° South 248 285 5,200 -750 Descending Memphis Center
Mon 08:18:09 AM 36.1033 -86.8017 198° South 235 270 4,700 -600 Descending Memphis Center
Mon 08:19:09 AM 36.0519 -86.8219 198° South 230 265 4,000 -800 Descending Memphis Center
Mon 08:20:09 AM 35.9981 -86.8394 195° South 214 246 3,100 -500 Descending Memphis Center
Mon 08:21:09 AM 35.9819 -86.7811 109° East 141 162 3,000 -350 Descending Memphis Center
Mon 08:22:09 AM 36.0197 -86.7231 51° Northeast 168 193 2,400 -800 Descending Memphis Center
Mon 08:23:09 AM 36.0650 -86.7031 20° North 177 204 1,400 -850 Descending Memphis Center
Mon 08:24:09 AM 36.1022 -86.6886 17° North 165 190 700 -700 Descending Memphis Center
Mon 08:26:00 AM 36.1167 -86.6667 28° Northeast  Level FlightAware Approximate
Mon 08:33:00 AM 36.1245 -86.6782 28° Northeast  Level Estimated
Mon 08:34:00 AM 36.1245 -86.6782 28° Northeast  Level Estimated
Mon 08:35:00 AM 36.1245 -86.6782 28° Northeast  Level Estimated
Mon 08:36:00 AM 36.1245 -86.6782 28° Northeast  Level Estimated
Mon 08:37:00 AM 36.1245 -86.6782 28° Northeast  Level Estimated
Mon 08:38:00 AM 36.1245 -86.6782 28° Northeast  Level Estimated

Login

Don't have an account? Register now (free) for customized features, flight alerts, and more!